sensor_id;sensor_type;location;lat;lon;timestamp;P1;durP1;ratioP1;P2;durP2;ratioP2
35612;SDS011;22054;51.646;7.078;2023-09-08T00:02:04;7.60;;;7.30;;
35612;SDS011;22054;51.646;7.078;2023-09-08T00:04:30;8.20;;;7.90;;
35612;SDS011;22054;51.646;7.078;2023-09-08T00:06:59;8.27;;;7.97;;
35612;SDS011;22054;51.646;7.078;2023-09-08T00:09:25;8.00;;;7.70;;
35612;SDS011;22054;51.646;7.078;2023-09-08T00:11:51;8.10;;;7.80;;
35612;SDS011;22054;51.646;7.078;2023-09-08T00:14:17;7.97;;;7.68;;
35612;SDS011;22054;51.646;7.078;2023-09-08T00:16:43;7.28;;;6.97;;
35612;SDS011;22054;51.646;7.078;2023-09-08T00:19:13;8.30;;;8.00;;
35612;SDS011;22054;51.646;7.078;2023-09-08T00:21:39;7.43;;;7.13;;
35612;SDS011;22054;51.646;7.078;2023-09-08T00:24:04;7.50;;;7.20;;
35612;SDS011;22054;51.646;7.078;2023-09-08T00:26:32;7.28;;;6.97;;
35612;SDS011;22054;51.646;7.078;2023-09-08T00:29:00;7.40;;;7.10;;
35612;SDS011;22054;51.646;7.078;2023-09-08T00:31:25;7.30;;;7.00;;
35612;SDS011;22054;51.646;7.078;2023-09-08T00:36:21;7.70;;;7.40;;
35612;SDS011;22054;51.646;7.078;2023-09-08T00:38:47;7.65;;;7.35;;
35612;SDS011;22054;51.646;7.078;2023-09-08T00:41:12;7.35;;;7.05;;
35612;SDS011;22054;51.646;7.078;2023-09-08T00:43:39;7.68;;;7.38;;
35612;SDS011;22054;51.646;7.078;2023-09-08T00:46:05;7.25;;;6.95;;
35612;SDS011;22054;51.646;7.078;2023-09-08T00:48:34;7.20;;;6.90;;
35612;SDS011;22054;51.646;7.078;2023-09-08T00:51:00;7.80;;;7.50;;
35612;SDS011;22054;51.646;7.078;2023-09-08T00:53:27;7.35;;;7.05;;
35612;SDS011;22054;51.646;7.078;2023-09-08T00:55:53;7.80;;;7.50;;
35612;SDS011;22054;51.646;7.078;2023-09-08T00:58:30;0.00;;;0.00;;
35612;SDS011;22054;51.646;7.078;2023-09-08T01:00:56;0.00;;;0.00;;
35612;SDS011;22054;51.646;7.078;2023-09-08T01:03:29;0.00;;;0.00;;
35612;SDS011;22054;51.646;7.078;2023-09-08T01:05:54;0.00;;;0.00;;
35612;SDS011;22054;51.646;7.078;2023-09-08T01:08:22;0.00;;;0.00;;
35612;SDS011;22054;51.646;7.078;2023-09-08T01:10:48;0.00;;;0.00;;
35612;SDS011;22054;51.646;7.078;2023-09-08T01:13:17;0.00;;;0.00;;
35612;SDS011;22054;51.646;7.078;2023-09-08T01:15:44;0.00;;;0.00;;
35612;SDS011;22054;51.646;7.078;2023-09-08T01:18:10;0.00;;;0.00;;
35612;SDS011;22054;51.646;7.078;2023-09-08T01:26:30;0.00;;;0.00;;
35612;SDS011;22054;51.646;7.078;2023-09-08T01:29:01;0.00;;;0.00;;
35612;SDS011;22054;51.646;7.078;2023-09-08T01:31:27;0.00;;;0.00;;
35612;SDS011;22054;51.646;7.078;2023-09-08T01:33:54;0.00;;;0.00;;
35612;SDS011;22054;51.646;7.078;2023-09-08T01:36:20;0.00;;;0.00;;
35612;SDS011;22054;51.646;7.078;2023-09-08T01:38:47;0.00;;;0.00;;
35612;SDS011;22054;51.646;7.078;2023-09-08T01:41:12;0.00;;;0.00;;
35612;SDS011;22054;51.646;7.078;2023-09-08T01:43:38;0.00;;;0.00;;
35612;SDS011;22054;51.646;7.078;2023-09-08T01:46:04;0.00;;;0.00;;
35612;SDS011;22054;51.646;7.078;2023-09-08T01:48:30;0.00;;;0.00;;
35612;SDS011;22054;51.646;7.078;2023-09-08T01:50:55;0.00;;;0.00;;
35612;SDS011;22054;51.646;7.078;2023-09-08T01:53:21;0.00;;;0.00;;
35612;SDS011;22054;51.646;7.078;2023-09-08T01:55:47;0.00;;;0.00;;
35612;SDS011;22054;51.646;7.078;2023-09-08T01:58:13;0.00;;;0.00;;
35612;SDS011;22054;51.646;7.078;2023-09-08T02:00:38;0.00;;;0.00;;
35612;SDS011;22054;51.646;7.078;2023-09-08T02:03:05;0.00;;;0.00;;
35612;SDS011;22054;51.646;7.078;2023-09-08T02:05:31;0.00;;;0.00;;
35612;SDS011;22054;51.646;7.078;2023-09-08T02:08:00;0.00;;;0.00;;
35612;SDS011;22054;51.646;7.078;2023-09-08T02:10:25;0.00;;;0.00;;
35612;SDS011;22054;51.646;7.078;2023-09-08T02:12:53;0.00;;;0.00;;
35612;SDS011;22054;51.646;7.078;2023-09-08T02:15:21;0.00;;;0.00;;
35612;SDS011;22054;51.646;7.078;2023-09-08T02:17:48;0.00;;;0.00;;
35612;SDS011;22054;51.646;7.078;2023-09-08T02:20:31;0.00;;;0.00;;
35612;SDS011;22054;51.646;7.078;2023-09-08T02:22:57;0.00;;;0.00;;
35612;SDS011;22054;51.646;7.078;2023-09-08T02:25:35;0.00;;;0.00;;
35612;SDS011;22054;51.646;7.078;2023-09-08T02:28:01;0.00;;;0.00;;
35612;SDS011;22054;51.646;7.078;2023-09-08T02:30:30;0.00;;;0.00;;
35612;SDS011;22054;51.646;7.078;2023-09-08T02:32:56;0.00;;;0.00;;
35612;SDS011;22054;51.646;7.078;2023-09-08T02:35:23;0.00;;;0.00;;
35612;SDS011;22054;51.646;7.078;2023-09-08T02:37:49;0.00;;;0.00;;
35612;SDS011;22054;51.646;7.078;2023-09-08T02:40:15;0.00;;;0.00;;
35612;SDS011;22054;51.646;7.078;2023-09-08T02:42:41;0.00;;;0.00;;
35612;SDS011;22054;51.646;7.078;2023-09-08T02:45:07;0.00;;;0.00;;
35612;SDS011;22054;51.646;7.078;2023-09-08T02:47:33;0.00;;;0.00;;
35612;SDS011;22054;51.646;7.078;2023-09-08T02:49:59;0.00;;;0.00;;
35612;SDS011;22054;51.646;7.078;2023-09-08T02:52:24;0.00;;;0.00;;
35612;SDS011;22054;51.646;7.078;2023-09-08T02:54:51;0.00;;;0.00;;
35612;SDS011;22054;51.646;7.078;2023-09-08T02:57:17;0.00;;;0.00;;
35612;SDS011;22054;51.646;7.078;2023-09-08T02:59:52;0.00;;;0.00;;
35612;SDS011;22054;51.646;7.078;2023-09-08T03:02:21;0.00;;;0.00;;
35612;SDS011;22054;51.646;7.078;2023-09-08T03:04:49;0.00;;;0.00;;
35612;SDS011;22054;51.646;7.078;2023-09-08T03:07:15;0.00;;;0.00;;
35612;SDS011;22054;51.646;7.078;2023-09-08T03:09:45;0.00;;;0.00;;
35612;SDS011;22054;51.646;7.078;2023-09-08T03:12:11;0.00;;;0.00;;
35612;SDS011;22054;51.646;7.078;2023-09-08T03:14:40;0.00;;;0.00;;
35612;SDS011;22054;51.646;7.078;2023-09-08T03:17:06;0.00;;;0.00;;
35612;SDS011;22054;51.646;7.078;2023-09-08T03:19:32;0.00;;;0.00;;
35612;SDS011;22054;51.646;7.078;2023-09-08T03:21:58;0.00;;;0.00;;
35612;SDS011;22054;51.646;7.078;2023-09-08T03:24:31;0.00;;;0.00;;
35612;SDS011;22054;51.646;7.078;2023-09-08T03:26:56;0.00;;;0.00;;
35612;SDS011;22054;51.646;7.078;2023-09-08T03:29:23;0.00;;;0.00;;
35612;SDS011;22054;51.646;7.078;2023-09-08T03:31:49;0.00;;;0.00;;
35612;SDS011;22054;51.646;7.078;2023-09-08T03:34:16;0.00;;;0.00;;
35612;SDS011;22054;51.646;7.078;2023-09-08T03:36:45;0.00;;;0.00;;
35612;SDS011;22054;51.646;7.078;2023-09-08T03:42:30;0.00;;;0.00;;
35612;SDS011;22054;51.646;7.078;2023-09-08T03:47:25;0.00;;;0.00;;
35612;SDS011;22054;51.646;7.078;2023-09-08T03:49:50;0.00;;;0.00;;
35612;SDS011;22054;51.646;7.078;2023-09-08T03:52:16;0.00;;;0.00;;
35612;SDS011;22054;51.646;7.078;2023-09-08T03:57:11;0.00;;;0.00;;
35612;SDS011;22054;51.646;7.078;2023-09-08T03:59:37;0.00;;;0.00;;
35612;SDS011;22054;51.646;7.078;2023-09-08T04:02:02;0.00;;;0.00;;
35612;SDS011;22054;51.646;7.078;2023-09-08T04:04:34;0.00;;;0.00;;
35612;SDS011;22054;51.646;7.078;2023-09-08T04:07:00;0.00;;;0.00;;
35612;SDS011;22054;51.646;7.078;2023-09-08T04:09:26;0.00;;;0.00;;
35612;SDS011;22054;51.646;7.078;2023-09-08T04:11:53;0.00;;;0.00;;
35612;SDS011;22054;51.646;7.078;2023-09-08T04:14:22;0.00;;;0.00;;
35612;SDS011;22054;51.646;7.078;2023-09-08T04:16:51;0.00;;;0.00;;
35612;SDS011;22054;51.646;7.078;2023-09-08T04:19:20;0.00;;;0.00;;
35612;SDS011;22054;51.646;7.078;2023-09-08T04:21:46;0.00;;;0.00;;
35612;SDS011;22054;51.646;7.078;2023-09-08T04:24:11;0.00;;;0.00;;
35612;SDS011;22054;51.646;7.078;2023-09-08T04:26:37;0.00;;;0.00;;
35612;SDS011;22054;51.646;7.078;2023-09-08T04:29:04;0.00;;;0.00;;
35612;SDS011;22054;51.646;7.078;2023-09-08T04:31:30;0.00;;;0.00;;
35612;SDS011;22054;51.646;7.078;2023-09-08T04:33:55;0.00;;;0.00;;
35612;SDS011;22054;51.646;7.078;2023-09-08T04:36:21;0.00;;;0.00;;
35612;SDS011;22054;51.646;7.078;2023-09-08T04:38:47;0.00;;;0.00;;
35612;SDS011;22054;51.646;7.078;2023-09-08T04:41:13;0.00;;;0.00;;
35612;SDS011;22054;51.646;7.078;2023-09-08T04:43:38;0.00;;;0.00;;
35612;SDS011;22054;51.646;7.078;2023-09-08T04:46:04;0.00;;;0.00;;
35612;SDS011;22054;51.646;7.078;2023-09-08T04:48:30;0.00;;;0.00;;
35612;SDS011;22054;51.646;7.078;2023-09-08T04:50:56;0.00;;;0.00;;
35612;SDS011;22054;51.646;7.078;2023-09-08T04:53:22;0.00;;;0.00;;
35612;SDS011;22054;51.646;7.078;2023-09-08T04:55:48;0.00;;;0.00;;
35612;SDS011;22054;51.646;7.078;2023-09-08T04:58:13;0.00;;;0.00;;
35612;SDS011;22054;51.646;7.078;2023-09-08T05:00:39;0.00;;;0.00;;
35612;SDS011;22054;51.646;7.078;2023-09-08T05:03:05;0.00;;;0.00;;
35612;SDS011;22054;51.646;7.078;2023-09-08T05:05:31;0.00;;;0.00;;
35612;SDS011;22054;51.646;7.078;2023-09-08T05:07:56;0.00;;;0.00;;
35612;SDS011;22054;51.646;7.078;2023-09-08T05:10:22;0.00;;;0.00;;
35612;SDS011;22054;51.646;7.078;2023-09-08T05:12:49;0.00;;;0.00;;
35612;SDS011;22054;51.646;7.078;2023-09-08T05:15:15;0.00;;;0.00;;
35612;SDS011;22054;51.646;7.078;2023-09-08T05:17:41;0.00;;;0.00;;
35612;SDS011;22054;51.646;7.078;2023-09-08T05:20:08;0.00;;;0.00;;
35612;SDS011;22054;51.646;7.078;2023-09-08T05:22:34;0.00;;;0.00;;
35612;SDS011;22054;51.646;7.078;2023-09-08T05:25:01;0.00;;;0.00;;
35612;SDS011;22054;51.646;7.078;2023-09-08T05:27:28;0.00;;;0.00;;
35612;SDS011;22054;51.646;7.078;2023-09-08T05:29:54;0.00;;;0.00;;
35612;SDS011;22054;51.646;7.078;2023-09-08T05:32:20;0.00;;;0.00;;
35612;SDS011;22054;51.646;7.078;2023-09-08T05:34:45;0.00;;;0.00;;
35612;SDS011;22054;51.646;7.078;2023-09-08T05:37:11;0.00;;;0.00;;
35612;SDS011;22054;51.646;7.078;2023-09-08T05:39:37;0.00;;;0.00;;
35612;SDS011;22054;51.646;7.078;2023-09-08T05:42:03;0.00;;;0.00;;
35612;SDS011;22054;51.646;7.078;2023-09-08T05:44:29;0.00;;;0.00;;
35612;SDS011;22054;51.646;7.078;2023-09-08T05:46:55;0.00;;;0.00;;
35612;SDS011;22054;51.646;7.078;2023-09-08T05:49:21;0.00;;;0.00;;
35612;SDS011;22054;51.646;7.078;2023-09-08T05:51:46;0.00;;;0.00;;
35612;SDS011;22054;51.646;7.078;2023-09-08T05:54:12;0.00;;;0.00;;
35612;SDS011;22054;51.646;7.078;2023-09-08T05:56:38;0.00;;;0.00;;
35612;SDS011;22054;51.646;7.078;2023-09-08T05:59:04;0.00;;;0.00;;
35612;SDS011;22054;51.646;7.078;2023-09-08T06:01:30;0.00;;;0.00;;
35612;SDS011;22054;51.646;7.078;2023-09-08T06:03:56;0.00;;;0.00;;
35612;SDS011;22054;51.646;7.078;2023-09-08T06:06:22;0.00;;;0.00;;
35612;SDS011;22054;51.646;7.078;2023-09-08T06:08:48;0.00;;;0.00;;
35612;SDS011;22054;51.646;7.078;2023-09-08T06:11:14;0.00;;;0.00;;
35612;SDS011;22054;51.646;7.078;2023-09-08T06:13:40;0.00;;;0.00;;
35612;SDS011;22054;51.646;7.078;2023-09-08T06:16:05;0.00;;;0.00;;
35612;SDS011;22054;51.646;7.078;2023-09-08T06:18:32;0.00;;;0.00;;
35612;SDS011;22054;51.646;7.078;2023-09-08T06:21:05;0.00;;;0.00;;
35612;SDS011;22054;51.646;7.078;2023-09-08T06:23:34;0.00;;;0.00;;
35612;SDS011;22054;51.646;7.078;2023-09-08T06:26:00;0.00;;;0.00;;
35612;SDS011;22054;51.646;7.078;2023-09-08T06:28:27;0.00;;;0.00;;
35612;SDS011;22054;51.646;7.078;2023-09-08T06:30:53;0.00;;;0.00;;
35612;SDS011;22054;51.646;7.078;2023-09-08T06:33:20;0.00;;;0.00;;
35612;SDS011;22054;51.646;7.078;2023-09-08T06:35:47;0.00;;;0.00;;
35612;SDS011;22054;51.646;7.078;2023-09-08T06:38:13;0.00;;;0.00;;
35612;SDS011;22054;51.646;7.078;2023-09-08T06:40:39;0.00;;;0.00;;
35612;SDS011;22054;51.646;7.078;2023-09-08T06:43:05;0.00;;;0.00;;
35612;SDS011;22054;51.646;7.078;2023-09-08T06:45:31;0.00;;;0.00;;
35612;SDS011;22054;51.646;7.078;2023-09-08T06:47:56;0.00;;;0.00;;
35612;SDS011;22054;51.646;7.078;2023-09-08T06:50:22;0.00;;;0.00;;
35612;SDS011;22054;51.646;7.078;2023-09-08T06:52:49;0.00;;;0.00;;
35612;SDS011;22054;51.646;7.078;2023-09-08T06:55:16;0.00;;;0.00;;
35612;SDS011;22054;51.646;7.078;2023-09-08T06:57:42;0.00;;;0.00;;
35612;SDS011;22054;51.646;7.078;2023-09-08T07:00:09;0.00;;;0.00;;
35612;SDS011;22054;51.646;7.078;2023-09-08T07:02:38;0.00;;;0.00;;
35612;SDS011;22054;51.646;7.078;2023-09-08T07:05:05;0.00;;;0.00;;
35612;SDS011;22054;51.646;7.078;2023-09-08T07:07:34;0.00;;;0.00;;
35612;SDS011;22054;51.646;7.078;2023-09-08T07:10:01;0.00;;;0.00;;
35612;SDS011;22054;51.646;7.078;2023-09-08T07:12:30;0.00;;;0.00;;
35612;SDS011;22054;51.646;7.078;2023-09-08T07:14:56;0.00;;;0.00;;
35612;SDS011;22054;51.646;7.078;2023-09-08T07:17:22;0.40;;;0.40;;
35612;SDS011;22054;51.646;7.078;2023-09-08T07:19:50;1.30;;;1.30;;
35612;SDS011;22054;51.646;7.078;2023-09-08T07:22:16;0.00;;;0.00;;
35612;SDS011;22054;51.646;7.078;2023-09-08T07:24:42;1.35;;;1.35;;
35612;SDS011;22054;51.646;7.078;2023-09-08T07:27:09;0.00;;;0.00;;
35612;SDS011;22054;51.646;7.078;2023-09-08T07:29:35;0.00;;;0.00;;
35612;SDS011;22054;51.646;7.078;2023-09-08T07:32:01;0.10;;;0.10;;
35612;SDS011;22054;51.646;7.078;2023-09-08T07:34:28;0.47;;;0.47;;
35612;SDS011;22054;51.646;7.078;2023-09-08T07:36:54;0.00;;;0.00;;
35612;SDS011;22054;51.646;7.078;2023-09-08T07:39:20;10.75;;;10.32;;
35612;SDS011;22054;51.646;7.078;2023-09-08T07:41:46;4.40;;;4.20;;
35612;SDS011;22054;51.646;7.078;2023-09-08T07:44:12;0.00;;;0.00;;
35612;SDS011;22054;51.646;7.078;2023-09-08T07:46:38;7.68;;;7.38;;
35612;SDS011;22054;51.646;7.078;2023-09-08T07:49:04;7.80;;;7.50;;
35612;SDS011;22054;51.646;7.078;2023-09-08T07:51:29;7.60;;;7.30;;
35612;SDS011;22054;51.646;7.078;2023-09-08T07:53:55;7.38;;;7.07;;
35612;SDS011;22054;51.646;7.078;2023-09-08T07:56:21;7.85;;;7.55;;
35612;SDS011;22054;51.646;7.078;2023-09-08T07:58:47;7.70;;;7.40;;
35612;SDS011;22054;51.646;7.078;2023-09-08T08:01:13;7.50;;;7.20;;
35612;SDS011;22054;51.646;7.078;2023-09-08T08:03:40;7.70;;;7.40;;
35612;SDS011;22054;51.646;7.078;2023-09-08T08:06:06;7.35;;;7.05;;
35612;SDS011;22054;51.646;7.078;2023-09-08T08:08:33;7.63;;;7.32;;
35612;SDS011;22054;51.646;7.078;2023-09-08T08:11:03;6.55;;;6.32;;
35612;SDS011;22054;51.646;7.078;2023-09-08T08:13:37;6.90;;;6.60;;
35612;SDS011;22054;51.646;7.078;2023-09-08T08:16:03;6.53;;;6.28;;
35612;SDS011;22054;51.646;7.078;2023-09-08T08:18:29;7.00;;;6.70;;
35612;SDS011;22054;51.646;7.078;2023-09-08T08:20:55;7.38;;;7.07;;
35612;SDS011;22054;51.646;7.078;2023-09-08T08:23:20;7.10;;;6.80;;
35612;SDS011;22054;51.646;7.078;2023-09-08T08:25:46;7.10;;;6.80;;
35612;SDS011;22054;51.646;7.078;2023-09-08T08:28:14;7.10;;;6.80;;
35612;SDS011;22054;51.646;7.078;2023-09-08T08:30:40;7.53;;;7.22;;
35612;SDS011;22054;51.646;7.078;2023-09-08T08:33:05;7.70;;;7.40;;
35612;SDS011;22054;51.646;7.078;2023-09-08T08:35:34;7.60;;;7.30;;
35612;SDS011;22054;51.646;7.078;2023-09-08T08:38:00;7.13;;;6.82;;
35612;SDS011;22054;51.646;7.078;2023-09-08T08:40:26;7.53;;;7.22;;
35612;SDS011;22054;51.646;7.078;2023-09-08T08:42:56;7.70;;;7.40;;
35612;SDS011;22054;51.646;7.078;2023-09-08T08:45:24;7.70;;;7.40;;
35612;SDS011;22054;51.646;7.078;2023-09-08T08:47:50;8.05;;;7.75;;
35612;SDS011;22054;51.646;7.078;2023-09-08T08:50:17;7.85;;;7.55;;
35612;SDS011;22054;51.646;7.078;2023-09-08T08:52:44;8.00;;;7.70;;
35612;SDS011;22054;51.646;7.078;2023-09-08T08:55:10;7.50;;;7.20;;
35612;SDS011;22054;51.646;7.078;2023-09-08T08:57:38;8.05;;;7.75;;
35612;SDS011;22054;51.646;7.078;2023-09-08T09:00:08;7.90;;;7.60;;
35612;SDS011;22054;51.646;7.078;2023-09-08T09:02:40;7.60;;;7.30;;
35612;SDS011;22054;51.646;7.078;2023-09-08T09:05:11;7.93;;;7.63;;
35612;SDS011;22054;51.646;7.078;2023-09-08T09:07:39;7.60;;;7.30;;
35612;SDS011;22054;51.646;7.078;2023-09-08T09:10:07;7.75;;;7.45;;
35612;SDS011;22054;51.646;7.078;2023-09-08T09:12:33;7.47;;;7.18;;
35612;SDS011;22054;51.646;7.078;2023-09-08T09:17:32;7.63;;;7.32;;
35612;SDS011;22054;51.646;7.078;2023-09-08T09:20:12;7.50;;;7.20;;
35612;SDS011;22054;51.646;7.078;2023-09-08T09:22:45;7.90;;;7.60;;
35612;SDS011;22054;51.646;7.078;2023-09-08T09:25:29;6.30;;;6.10;;
35612;SDS011;22054;51.646;7.078;2023-09-08T09:28:00;6.72;;;6.43;;
35612;SDS011;22054;51.646;7.078;2023-09-08T09:30:27;7.00;;;6.70;;
35612;SDS011;22054;51.646;7.078;2023-09-08T09:33:11;7.40;;;7.10;;
35612;SDS011;22054;51.646;7.078;2023-09-08T09:38:11;6.47;;;6.28;;
35612;SDS011;22054;51.646;7.078;2023-09-08T09:40:38;6.93;;;6.63;;
35612;SDS011;22054;51.646;7.078;2023-09-08T09:43:05;8.10;;;7.80;;
35612;SDS011;22054;51.646;7.078;2023-09-08T09:45:33;7.35;;;7.05;;
35612;SDS011;22054;51.646;7.078;2023-09-08T09:48:00;7.63;;;7.32;;
35612;SDS011;22054;51.646;7.078;2023-09-08T09:53:00;7.90;;;7.60;;
35612;SDS011;22054;51.646;7.078;2023-09-08T09:55:28;8.05;;;7.75;;
35612;SDS011;22054;51.646;7.078;2023-09-08T09:57:57;7.40;;;7.10;;
35612;SDS011;22054;51.646;7.078;2023-09-08T10:00:26;7.85;;;7.55;;
35612;SDS011;22054;51.646;7.078;2023-09-08T10:02:53;8.13;;;7.82;;
35612;SDS011;22054;51.646;7.078;2023-09-08T10:05:20;7.75;;;7.45;;
35612;SDS011;22054;51.646;7.078;2023-09-08T10:07:47;8.10;;;7.80;;
35612;SDS011;22054;51.646;7.078;2023-09-08T10:10:14;7.60;;;7.30;;
35612;SDS011;22054;51.646;7.078;2023-09-08T10:12:42;7.70;;;7.40;;
35612;SDS011;22054;51.646;7.078;2023-09-08T10:15:12;7.60;;;7.30;;
35612;SDS011;22054;51.646;7.078;2023-09-08T10:17:44;7.55;;;7.25;;
35612;SDS011;22054;51.646;7.078;2023-09-08T10:20:13;7.80;;;7.50;;
35612;SDS011;22054;51.646;7.078;2023-09-08T10:22:41;7.10;;;6.80;;
35612;SDS011;22054;51.646;7.078;2023-09-08T10:25:08;7.00;;;6.70;;
35612;SDS011;22054;51.646;7.078;2023-09-08T10:27:35;7.30;;;7.00;;
35612;SDS011;22054;51.646;7.078;2023-09-08T10:30:03;7.50;;;7.20;;
35612;SDS011;22054;51.646;7.078;2023-09-08T10:32:31;7.50;;;7.20;;
35612;SDS011;22054;51.646;7.078;2023-09-08T10:35:00;7.70;;;7.40;;
35612;SDS011;22054;51.646;7.078;2023-09-08T10:37:27;7.07;;;6.78;;
35612;SDS011;22054;51.646;7.078;2023-09-08T10:40:19;7.63;;;7.32;;
35612;SDS011;22054;51.646;7.078;2023-09-08T10:42:46;7.50;;;7.20;;
35612;SDS011;22054;51.646;7.078;2023-09-08T10:45:18;7.80;;;7.50;;
35612;SDS011;22054;51.646;7.078;2023-09-08T10:50:17;8.18;;;7.88;;
35612;SDS011;22054;51.646;7.078;2023-09-08T10:53:06;7.90;;;7.60;;
35612;SDS011;22054;51.646;7.078;2023-09-08T10:55:49;8.13;;;7.82;;
35612;SDS011;22054;51.646;7.078;2023-09-08T11:00:56;7.55;;;7.25;;
35612;SDS011;22054;51.646;7.078;2023-09-08T11:06:07;7.80;;;7.50;;
35612;SDS011;22054;51.646;7.078;2023-09-08T11:08:37;7.80;;;7.50;;
35612;SDS011;22054;51.646;7.078;2023-09-08T11:11:06;7.90;;;7.60;;
35612;SDS011;22054;51.646;7.078;2023-09-08T11:13:32;8.05;;;7.75;;
35612;SDS011;22054;51.646;7.078;2023-09-08T11:15:58;7.82;;;7.53;;
35612;SDS011;22054;51.646;7.078;2023-09-08T11:20:59;8.30;;;8.00;;
35612;SDS011;22054;51.646;7.078;2023-09-08T11:23:29;7.90;;;7.60;;
35612;SDS011;22054;51.646;7.078;2023-09-08T11:25:56;7.60;;;7.30;;
35612;SDS011;22054;51.646;7.078;2023-09-08T11:28:23;8.27;;;7.97;;
35612;SDS011;22054;51.646;7.078;2023-09-08T11:33:18;7.97;;;7.68;;
35612;SDS011;22054;51.646;7.078;2023-09-08T11:35:51;8.30;;;8.00;;
35612;SDS011;22054;51.646;7.078;2023-09-08T11:38:23;8.15;;;7.85;;
35612;SDS011;22054;51.646;7.078;2023-09-08T11:40:53;8.18;;;7.88;;
35612;SDS011;22054;51.646;7.078;2023-09-08T11:43:21;7.95;;;7.65;;
35612;SDS011;22054;51.646;7.078;2023-09-08T11:45:46;8.00;;;7.70;;
35612;SDS011;22054;51.646;7.078;2023-09-08T11:48:14;7.60;;;7.30;;
35612;SDS011;22054;51.646;7.078;2023-09-08T11:50:44;7.68;;;7.38;;
35612;SDS011;22054;51.646;7.078;2023-09-08T11:53:09;7.40;;;7.10;;
35612;SDS011;22054;51.646;7.078;2023-09-08T11:55:44;7.50;;;7.20;;
35612;SDS011;22054;51.646;7.078;2023-09-08T11:58:10;7.68;;;7.38;;
35612;SDS011;22054;51.646;7.078;2023-09-08T12:00:36;7.30;;;7.00;;
35612;SDS011;22054;51.646;7.078;2023-09-08T12:03:12;7.80;;;7.50;;
35612;SDS011;22054;51.646;7.078;2023-09-08T12:05:43;7.93;;;7.63;;
35612;SDS011;22054;51.646;7.078;2023-09-08T12:08:10;7.93;;;7.63;;
35612;SDS011;22054;51.646;7.078;2023-09-08T12:10:42;7.30;;;7.00;;
35612;SDS011;22054;51.646;7.078;2023-09-08T12:13:08;7.57;;;7.28;;
35612;SDS011;22054;51.646;7.078;2023-09-08T12:15:35;7.80;;;7.50;;
35612;SDS011;22054;51.646;7.078;2023-09-08T12:20:32;8.20;;;7.90;;
35612;SDS011;22054;51.646;7.078;2023-09-08T12:23:01;8.50;;;8.20;;
35612;SDS011;22054;51.646;7.078;2023-09-08T12:25:45;8.40;;;8.10;;
35612;SDS011;22054;51.646;7.078;2023-09-08T12:28:12;8.30;;;8.00;;
35612;SDS011;22054;51.646;7.078;2023-09-08T12:30:38;7.75;;;7.45;;
35612;SDS011;22054;51.646;7.078;2023-09-08T12:33:04;7.50;;;7.20;;
35612;SDS011;22054;51.646;7.078;2023-09-08T12:35:30;8.27;;;7.97;;
35612;SDS011;22054;51.646;7.078;2023-09-08T12:38:00;8.50;;;8.20;;
35612;SDS011;22054;51.646;7.078;2023-09-08T12:40:32;8.45;;;8.15;;
35612;SDS011;22054;51.646;7.078;2023-09-08T12:43:00;8.30;;;8.00;;
35612;SDS011;22054;51.646;7.078;2023-09-08T12:45:27;8.25;;;7.95;;
35612;SDS011;22054;51.646;7.078;2023-09-08T12:47:53;8.77;;;8.48;;
35612;SDS011;22054;51.646;7.078;2023-09-08T12:50:23;8.13;;;7.82;;
35612;SDS011;22054;51.646;7.078;2023-09-08T12:52:50;9.18;;;8.77;;
35612;SDS011;22054;51.646;7.078;2023-09-08T12:55:16;8.40;;;8.10;;
35612;SDS011;22054;51.646;7.078;2023-09-08T12:57:42;8.20;;;7.90;;
35612;SDS011;22054;51.646;7.078;2023-09-08T13:00:08;8.10;;;7.80;;
35612;SDS011;22054;51.646;7.078;2023-09-08T13:02:34;8.20;;;7.90;;
35612;SDS011;22054;51.646;7.078;2023-09-08T13:05:01;8.50;;;8.20;;
35612;SDS011;22054;51.646;7.078;2023-09-08T13:07:29;8.32;;;8.02;;
35612;SDS011;22054;51.646;7.078;2023-09-08T13:09:54;8.30;;;8.00;;
35612;SDS011;22054;51.646;7.078;2023-09-08T13:12:20;8.80;;;8.50;;
35612;SDS011;22054;51.646;7.078;2023-09-08T13:14:46;8.80;;;8.50;;
35612;SDS011;22054;51.646;7.078;2023-09-08T13:17:12;8.23;;;7.93;;
35612;SDS011;22054;51.646;7.078;2023-09-08T13:19:40;8.20;;;7.90;;
35612;SDS011;22054;51.646;7.078;2023-09-08T13:22:07;8.38;;;8.07;;
35612;SDS011;22054;51.646;7.078;2023-09-08T13:24:33;8.80;;;8.50;;
35612;SDS011;22054;51.646;7.078;2023-09-08T13:27:01;8.00;;;7.70;;
35612;SDS011;22054;51.646;7.078;2023-09-08T13:29:28;8.30;;;8.00;;
35612;SDS011;22054;51.646;7.078;2023-09-08T13:31:54;8.40;;;8.10;;
35612;SDS011;22054;51.646;7.078;2023-09-08T13:34:23;7.72;;;7.43;;
35612;SDS011;22054;51.646;7.078;2023-09-08T13:36:49;7.90;;;7.60;;
35612;SDS011;22054;51.646;7.078;2023-09-08T13:39:15;8.68;;;8.38;;
35612;SDS011;22054;51.646;7.078;2023-09-08T13:44:21;8.18;;;7.88;;
35612;SDS011;22054;51.646;7.078;2023-09-08T13:46:52;8.80;;;8.50;;
35612;SDS011;22054;51.646;7.078;2023-09-08T13:49:19;8.40;;;8.10;;
35612;SDS011;22054;51.646;7.078;2023-09-08T13:51:45;8.40;;;8.10;;
35612;SDS011;22054;51.646;7.078;2023-09-08T13:54:12;8.50;;;8.20;;
35612;SDS011;22054;51.646;7.078;2023-09-08T13:56:38;8.40;;;8.10;;
35612;SDS011;22054;51.646;7.078;2023-09-08T13:59:06;8.63;;;8.32;;
35612;SDS011;22054;51.646;7.078;2023-09-08T14:01:33;8.80;;;8.50;;
35612;SDS011;22054;51.646;7.078;2023-09-08T14:03:59;8.60;;;8.30;;
35612;SDS011;22054;51.646;7.078;2023-09-08T14:06:26;8.60;;;8.30;;
35612;SDS011;22054;51.646;7.078;2023-09-08T14:08:53;8.80;;;8.50;;
35612;SDS011;22054;51.646;7.078;2023-09-08T14:11:19;8.68;;;8.38;;
35612;SDS011;22054;51.646;7.078;2023-09-08T14:13:46;8.70;;;8.40;;
35612;SDS011;22054;51.646;7.078;2023-09-08T14:16:12;8.80;;;8.50;;
35612;SDS011;22054;51.646;7.078;2023-09-08T14:18:38;9.30;;;8.90;;
35612;SDS011;22054;51.646;7.078;2023-09-08T14:21:04;9.10;;;8.70;;
35612;SDS011;22054;51.646;7.078;2023-09-08T14:23:31;8.48;;;8.18;;
35612;SDS011;22054;51.646;7.078;2023-09-08T14:28:25;7.63;;;7.32;;
35612;SDS011;22054;51.646;7.078;2023-09-08T14:30:51;7.80;;;7.50;;
35612;SDS011;22054;51.646;7.078;2023-09-08T14:33:18;7.45;;;7.15;;
35612;SDS011;22054;51.646;7.078;2023-09-08T14:35:44;7.90;;;7.60;;
35612;SDS011;22054;51.646;7.078;2023-09-08T14:38:16;7.07;;;6.78;;
35612;SDS011;22054;51.646;7.078;2023-09-08T14:40:42;7.72;;;7.43;;
35612;SDS011;22054;51.646;7.078;2023-09-08T14:43:08;7.40;;;7.10;;
35612;SDS011;22054;51.646;7.078;2023-09-08T14:45:34;7.65;;;7.35;;
35612;SDS011;22054;51.646;7.078;2023-09-08T14:48:00;7.70;;;7.40;;
35612;SDS011;22054;51.646;7.078;2023-09-08T14:50:25;7.40;;;7.10;;
35612;SDS011;22054;51.646;7.078;2023-09-08T14:52:51;7.22;;;6.93;;
35612;SDS011;22054;51.646;7.078;2023-09-08T14:55:17;7.40;;;7.10;;
35612;SDS011;22054;51.646;7.078;2023-09-08T14:57:43;7.43;;;7.13;;
35612;SDS011;22054;51.646;7.078;2023-09-08T15:00:09;7.22;;;6.93;;
35612;SDS011;22054;51.646;7.078;2023-09-08T15:02:35;7.07;;;6.78;;
35612;SDS011;22054;51.646;7.078;2023-09-08T15:05:01;7.15;;;6.85;;
35612;SDS011;22054;51.646;7.078;2023-09-08T15:07:27;6.45;;;6.25;;
35612;SDS011;22054;51.646;7.078;2023-09-08T15:09:52;6.65;;;6.35;;
35612;SDS011;22054;51.646;7.078;2023-09-08T15:12:18;6.80;;;6.50;;
35612;SDS011;22054;51.646;7.078;2023-09-08T15:14:44;6.70;;;6.40;;
35612;SDS011;22054;51.646;7.078;2023-09-08T15:17:10;6.93;;;6.63;;
35612;SDS011;22054;51.646;7.078;2023-09-08T15:19:37;6.82;;;6.53;;
35612;SDS011;22054;51.646;7.078;2023-09-08T15:22:04;6.50;;;6.30;;
35612;SDS011;22054;51.646;7.078;2023-09-08T15:24:29;6.57;;;6.30;;
35612;SDS011;22054;51.646;7.078;2023-09-08T15:26:55;6.25;;;6.05;;
35612;SDS011;22054;51.646;7.078;2023-09-08T15:29:22;6.60;;;6.30;;
35612;SDS011;22054;51.646;7.078;2023-09-08T15:31:48;6.45;;;6.25;;
35612;SDS011;22054;51.646;7.078;2023-09-08T15:34:14;6.20;;;6.00;;